createdAt,value
2017-11-01T00:00:51.767Z,79.63
2017-11-01T00:03:19.251Z,79.54
2017-11-01T00:05:46.751Z,79.47
2017-11-01T00:08:14.306Z,79.44
2017-11-01T00:10:41.791Z,79.14
2017-11-01T00:13:09.279Z,79.06
2017-11-01T00:15:36.812Z,79.18
2017-11-01T00:18:04.292Z,79.22
2017-11-01T00:20:31.783Z,79.33
2017-11-01T00:22:59.337Z,79.32
2017-11-01T00:25:26.820Z,79.55
2017-11-01T00:27:54.390Z,79.20
2017-11-01T00:30:21.952Z,79.03
2017-11-01T00:32:49.431Z,79.21
2017-11-01T00:35:16.910Z,79.12
2017-11-01T00:37:44.423Z,79.16
2017-11-01T00:40:11.955Z,79.12
2017-11-01T00:42:39.488Z,78.94
2017-11-01T00:45:06.970Z,78.85
2017-11-01T00:47:34.461Z,78.79
2017-11-01T00:52:35.884Z,78.80
2017-11-01T00:55:03.415Z,79.07
2017-11-01T00:57:30.901Z,78.88
2017-11-01T00:59:58.393Z,78.92
2017-11-01T01:02:25.915Z,78.77
2017-11-01T01:04:53.400Z,78.89
2017-11-01T01:07:20.890Z,79.08
2017-11-01T01:09:48.425Z,78.76
2017-11-01T01:12:15.915Z,78.78
2017-11-01T01:14:43.404Z,78.76
2017-11-01T01:17:10.940Z,78.58
2017-11-01T01:19:38.420Z,78.74
2017-11-01T01:22:05.903Z,78.88
2017-11-01T01:24:33.437Z,79.00
2017-11-01T01:27:01.026Z,79.03
2017-11-01T01:29:28.565Z,79.30
2017-11-01T01:31:56.051Z,79.76
2017-11-01T01:34:23.535Z,80.02
2017-11-01T01:36:51.048Z,80.33
2017-11-01T01:39:18.570Z,80.34
2017-11-01T01:41:46.296Z,80.56
2017-11-01T01:44:13.848Z,80.70
2017-11-01T01:46:41.364Z,80.87
2017-11-01T01:49:08.849Z,81.09
2017-11-01T01:51:36.335Z,81.43
2017-11-01T01:54:03.860Z,81.70
2017-11-01T01:56:31.343Z,81.64
2017-11-01T01:58:58.833Z,81.87
2017-11-01T02:01:26.441Z,81.94
2017-11-01T02:03:53.931Z,82.17
2017-11-01T02:06:21.423Z,82.47
2017-11-01T02:08:48.962Z,82.81
2017-11-01T02:11:16.471Z,83.28
2017-11-01T02:13:43.956Z,83.59
2017-11-01T02:16:11.589Z,84.00
2017-11-01T02:18:39.076Z,84.05
2017-11-01T02:21:06.556Z,84.23
2017-11-01T02:23:34.111Z,84.44
2017-11-01T02:26:01.603Z,84.52
2017-11-01T02:28:29.092Z,84.52
2017-11-01T02:30:56.625Z,84.63
2017-11-01T02:33:24.126Z,85.00
2017-11-01T02:35:51.611Z,85.36
2017-11-01T02:38:19.204Z,85.69
2017-11-01T02:40:46.705Z,86.05
2017-11-01T02:43:14.195Z,86.37
2017-11-01T02:45:41.736Z,86.44
2017-11-01T02:48:09.240Z,86.41
2017-11-01T02:50:36.732Z,86.29
2017-11-01T02:53:04.252Z,86.43
2017-11-01T02:55:31.738Z,86.55
2017-11-01T02:57:59.228Z,86.60
2017-11-01T03:00:26.856Z,86.51
2017-11-01T03:02:54.347Z,86.43
2017-11-01T03:05:21.823Z,86.39
2017-11-01T03:07:49.402Z,86.51
2017-11-01T03:10:16.970Z,86.69
2017-11-01T03:12:44.464Z,86.80
2017-11-01T03:15:11.976Z,87.16
2017-11-01T03:17:39.487Z,87.52
2017-11-01T03:20:07.024Z,87.47
2017-11-01T03:22:34.557Z,87.91
2017-11-01T03:25:02.044Z,88.60
2017-11-01T03:27:29.675Z,88.75
2017-11-01T03:29:57.177Z,89.16
2017-11-01T03:32:24.665Z,89.56
2017-11-01T03:34:52.175Z,89.64
2017-11-01T03:37:19.656Z,90.02
2017-11-01T03:39:47.172Z,90.39
2017-11-01T03:42:14.736Z,90.39
2017-11-01T03:44:42.308Z,90.58
2017-11-01T03:47:09.819Z,91.08
2017-11-01T03:49:37.309Z,91.32
2017-11-01T03:52:04.863Z,91.35
2017-11-01T03:54:32.352Z,91.73
2017-11-01T03:56:59.836Z,91.82
2017-11-01T03:59:27.354Z,92.00
2017-11-01T04:01:54.843Z,92.00
2017-11-01T04:04:22.365Z,92.04
2017-11-01T04:06:49.868Z,92.22
2017-11-01T04:09:17.409Z,92.31
2017-11-01T04:11:44.928Z,92.46
2017-11-01T04:14:12.417Z,92.53
2017-11-01T04:16:39.966Z,92.51
2017-11-01T04:19:09.389Z,92.46
2017-11-01T04:21:38.855Z,92.67
2017-11-01T04:24:06.390Z,92.84
2017-11-01T04:26:33.963Z,92.57
2017-11-01T04:29:01.447Z,92.52
2017-11-01T04:31:28.995Z,92.85
2017-11-01T04:33:56.483Z,92.92
2017-11-01T04:36:23.977Z,92.98
2017-11-01T04:38:51.511Z,93.09
2017-11-01T04:41:19.052Z,93.14
2017-11-01T04:43:46.538Z,93.02
2017-11-01T04:46:14.084Z,93.35
2017-11-01T04:48:41.572Z,93.10
2017-11-01T04:51:10.969Z,92.81
2017-11-01T04:53:40.288Z,92.96
2017-11-01T04:56:10.766Z,93.04
2017-11-01T04:58:38.254Z,92.98
2017-11-01T05:01:05.747Z,92.93
2017-11-01T05:03:33.287Z,93.03
2017-11-01T05:06:00.786Z,93.09
2017-11-01T05:08:33.849Z,92.97
2017-11-01T05:11:06.872Z,92.86
2017-11-01T05:13:35.187Z,93.25
2017-11-01T05:16:03.462Z,93.28
2017-11-01T05:18:30.950Z,93.15
2017-11-01T05:20:58.488Z,93.40
2017-11-01T05:23:26.067Z,93.25
2017-11-01T05:25:55.463Z,93.51
2017-11-01T05:28:22.971Z,93.30
2017-11-01T05:30:50.509Z,93.46
2017-11-01T05:33:18.001Z,93.51
2017-11-01T05:35:45.495Z,93.52
2017-11-01T05:38:13.029Z,93.46
2017-11-01T05:40:40.525Z,93.67
2017-11-01T05:43:08.075Z,93.58
2017-11-01T05:45:35.603Z,93.53
2017-11-01T05:48:03.104Z,93.58
2017-11-01T05:50:33.608Z,93.67
2017-11-01T05:53:01.375Z,93.89
2017-11-01T05:55:28.859Z,93.57
2017-11-01T05:57:56.343Z,93.59
2017-11-01T06:00:24.159Z,93.65
2017-11-01T06:02:51.646Z,93.74
2017-11-01T06:05:19.185Z,93.75
2017-11-01T06:07:46.708Z,93.71
2017-11-01T06:10:14.202Z,93.78
2017-11-01T06:12:41.774Z,93.57
2017-11-01T06:15:09.515Z,93.70
2017-11-01T06:17:37.003Z,93.69
2017-11-01T06:20:04.499Z,93.50
2017-11-01T06:22:32.012Z,93.58
2017-11-01T06:24:59.538Z,93.61
2017-11-01T06:27:27.057Z,93.45
2017-11-01T06:29:54.546Z,93.50
2017-11-01T06:32:22.118Z,93.61
2017-11-01T06:34:49.644Z,93.63
2017-11-01T06:37:17.134Z,93.49
2017-11-01T06:39:44.695Z,93.52
2017-11-01T06:42:12.259Z,93.41
2017-11-01T06:44:39.977Z,93.30
2017-11-01T06:47:07.484Z,93.32
2017-11-01T06:49:35.028Z,93.47
2017-11-01T06:52:02.508Z,93.40
2017-11-01T06:54:30.000Z,93.25
2017-11-01T06:56:57.511Z,93.25
2017-11-01T06:59:25.075Z,92.98
2017-11-01T07:01:52.601Z,93.31
2017-11-01T07:04:20.097Z,92.83
2017-11-01T07:06:47.588Z,93.06
2017-11-01T07:09:15.118Z,93.08
2017-11-01T07:11:42.685Z,93.19
2017-11-01T07:14:10.168Z,93.42
2017-11-01T07:16:37.731Z,93.49
2017-11-01T07:19:05.230Z,93.82
2017-11-01T07:21:32.800Z,93.87
2017-11-01T07:24:00.317Z,93.90
2017-11-01T07:26:27.916Z,94.14
2017-11-01T07:28:55.424Z,94.28
2017-11-01T07:31:22.946Z,94.26
2017-11-01T07:33:50.472Z,94.09
2017-11-01T07:36:17.960Z,93.97
2017-11-01T07:38:45.454Z,93.94
2017-11-01T07:41:13.082Z,94.08
2017-11-01T07:43:40.577Z,94.26
2017-11-01T07:46:08.093Z,94.05
2017-11-01T07:48:35.656Z,94.18
2017-11-01T07:51:03.211Z,93.98
2017-11-01T07:53:30.691Z,93.93
2017-11-01T07:55:58.236Z,94.02
2017-11-01T07:58:25.782Z,94.00
2017-11-01T08:00:53.272Z,93.67
2017-11-01T08:03:20.800Z,93.81
2017-11-01T08:05:48.287Z,93.79
2017-11-01T08:08:15.781Z,93.45
2017-11-01T08:10:43.305Z,93.21
2017-11-01T08:13:10.795Z,93.20
2017-11-01T08:15:38.286Z,93.32
2017-11-01T08:18:05.795Z,93.50
2017-11-01T08:20:33.313Z,93.43
2017-11-01T08:23:00.833Z,93.19
2017-11-01T08:25:28.321Z,93.08
2017-11-01T08:27:55.826Z,93.04
2017-11-01T08:30:23.348Z,93.38
2017-11-01T08:32:50.836Z,93.34
2017-11-01T08:35:18.340Z,93.00
2017-11-01T08:37:45.924Z,93.41
2017-11-01T08:40:13.427Z,93.47
2017-11-01T08:42:41.048Z,93.34
2017-11-01T08:45:08.605Z,93.26
2017-11-01T08:47:36.093Z,93.24
2017-11-01T08:50:03.612Z,93.33
2017-11-01T08:52:31.140Z,93.38
2017-11-01T08:54:58.726Z,93.19
2017-11-01T08:57:26.219Z,93.41
2017-11-01T08:59:53.751Z,93.35
2017-11-01T09:02:21.244Z,93.34
2017-11-01T09:04:48.729Z,93.13
2017-11-01T09:07:16.256Z,93.04
2017-11-01T09:09:43.752Z,93.32
2017-11-01T09:12:11.237Z,93.17
2017-11-01T09:14:38.772Z,92.83
2017-11-01T09:17:06.272Z,92.87
2017-11-01T09:19:33.809Z,92.97
2017-11-01T09:22:01.351Z,93.41
2017-11-01T09:24:28.944Z,93.03
2017-11-01T09:26:56.427Z,93.20
2017-11-01T09:29:23.959Z,93.23
2017-11-01T09:31:51.443Z,93.18
2017-11-01T09:34:18.945Z,93.23
2017-11-01T09:36:46.481Z,93.36
2017-11-01T09:39:13.987Z,93.23
2017-11-01T09:41:41.475Z,93.11
2017-11-01T09:44:09.012Z,92.84
2017-11-01T09:46:36.546Z,92.14
2017-11-01T09:49:04.117Z,92.24
2017-11-01T09:51:31.611Z,92.77
2017-11-01T09:53:59.249Z,92.86
2017-11-01T09:56:26.796Z,92.99
2017-11-01T09:58:54.276Z,92.93
2017-11-01T10:01:21.767Z,93.10
2017-11-01T10:03:49.279Z,93.07
2017-11-01T10:06:16.769Z,93.36
2017-11-01T10:08:44.304Z,93.33
2017-11-01T10:11:11.791Z,93.44
2017-11-01T10:13:39.275Z,93.28
2017-11-01T10:16:06.804Z,92.87
2017-11-01T10:18:34.316Z,93.08
2017-11-01T10:21:01.811Z,93.41
2017-11-01T10:23:29.444Z,93.26
2017-11-01T10:25:56.935Z,93.28
2017-11-01T10:28:24.442Z,93.39
2017-11-01T10:30:52.007Z,93.39
2017-11-01T10:33:19.496Z,93.63
2017-11-01T10:35:47.038Z,93.65
2017-11-01T10:38:14.530Z,93.47
2017-11-01T10:40:42.018Z,93.46
2017-11-01T10:43:09.548Z,93.55
2017-11-01T10:45:37.052Z,93.60
2017-11-01T10:48:04.615Z,93.70
2017-11-01T10:50:32.143Z,93.65
2017-11-01T10:52:59.686Z,93.41
2017-11-01T10:55:27.181Z,93.53
2017-11-01T10:57:54.687Z,93.37
2017-11-01T11:00:22.323Z,93.43
2017-11-01T11:02:49.832Z,93.02
2017-11-01T11:05:17.372Z,92.92
2017-11-01T11:07:44.860Z,93.15
2017-11-01T11:10:12.363Z,93.26
2017-11-01T11:12:39.883Z,93.37
2017-11-01T11:15:07.456Z,93.40
2017-11-01T11:17:34.955Z,93.30
2017-11-01T11:20:02.484Z,93.51
2017-11-01T11:22:29.976Z,93.51
2017-11-01T11:24:57.470Z,93.53
2017-11-01T11:27:25.003Z,93.74
2017-11-01T11:29:52.518Z,93.77
2017-11-01T11:32:20.043Z,93.43
2017-11-01T11:34:47.566Z,93.33
2017-11-01T11:37:15.067Z,93.23
2017-11-01T11:39:42.640Z,93.27
2017-11-01T11:42:10.173Z,93.38
2017-11-01T11:44:37.666Z,93.37
2017-11-01T11:47:05.163Z,93.51
2017-11-01T11:49:32.693Z,93.34
2017-11-01T11:52:00.200Z,93.32
2017-11-01T11:54:27.701Z,93.28
2017-11-01T11:56:55.240Z,93.40
2017-11-01T11:59:22.832Z,93.28
2017-11-01T12:01:50.325Z,93.25
2017-11-01T12:04:17.861Z,93.09
2017-11-01T12:06:45.354Z,92.92
2017-11-01T12:09:12.912Z,93.14
2017-11-01T12:11:40.429Z,93.08
2017-11-01T12:14:07.949Z,92.87
2017-11-01T12:16:35.441Z,92.79
2017-11-01T12:19:02.931Z,92.80
2017-11-01T12:21:30.596Z,93.02
2017-11-01T12:23:58.090Z,93.11
2017-11-01T12:26:25.584Z,93.10
2017-11-01T12:28:53.120Z,93.00
2017-11-01T12:31:20.620Z,93.07
2017-11-01T12:33:48.108Z,92.98
2017-11-01T12:36:15.651Z,92.89
2017-11-01T12:38:43.147Z,92.92
2017-11-01T12:41:10.646Z,92.75
2017-11-01T12:43:38.268Z,92.79
2017-11-01T12:46:05.766Z,92.51
2017-11-01T12:48:33.381Z,92.61
2017-11-01T12:51:00.938Z,92.82
2017-11-01T12:53:28.504Z,93.01
2017-11-01T12:55:56.044Z,92.67
2017-11-01T12:58:23.642Z,92.60
2017-11-01T13:00:51.154Z,92.26
2017-11-01T13:03:18.699Z,92.45
2017-11-01T13:05:46.195Z,92.52
2017-11-01T13:08:13.703Z,92.56
2017-11-01T13:10:41.215Z,92.46
2017-11-01T13:13:08.715Z,92.36
2017-11-01T13:15:36.238Z,92.50
2017-11-01T13:18:03.735Z,92.86
2017-11-01T13:20:31.241Z,92.55
2017-11-01T13:22:58.761Z,92.29
2017-11-01T13:25:26.264Z,92.29
2017-11-01T13:27:53.785Z,91.92
2017-11-01T13:30:21.271Z,92.01
2017-11-01T13:32:48.812Z,92.19
2017-11-01T13:35:16.299Z,92.05
2017-11-01T13:37:43.883Z,92.17
2017-11-01T13:40:11.466Z,92.13
2017-11-01T13:42:38.956Z,92.09
2017-11-01T13:45:06.449Z,91.94
2017-11-01T13:47:34.011Z,91.82
2017-11-01T13:50:01.507Z,91.79
2017-11-01T13:52:28.997Z,91.87
2017-11-01T13:54:56.567Z,91.87
2017-11-01T13:57:24.062Z,91.75
2017-11-01T13:59:51.563Z,91.90
2017-11-01T14:02:19.088Z,92.26
2017-11-01T14:04:46.609Z,92.49
2017-11-01T14:07:14.106Z,92.41
2017-11-01T14:09:41.659Z,92.47
2017-11-01T14:12:09.172Z,92.76
2017-11-01T14:14:36.686Z,92.38
2017-11-01T14:17:04.297Z,92.51
2017-11-01T14:19:31.789Z,92.53
2017-11-01T14:21:59.340Z,92.53
2017-11-01T14:24:26.831Z,92.71
2017-11-01T14:26:54.424Z,92.84
2017-11-01T14:29:22.002Z,92.41
2017-11-01T14:31:49.489Z,92.59
2017-11-01T14:34:16.979Z,92.46
2017-11-01T14:36:44.527Z,92.29
2017-11-01T14:39:12.040Z,92.33
2017-11-01T14:41:39.532Z,92.33
2017-11-01T14:44:07.140Z,92.34
2017-11-01T14:46:34.700Z,92.65
2017-11-01T14:49:02.283Z,92.53
2017-11-01T14:51:29.797Z,92.61
2017-11-01T14:53:57.357Z,92.61
2017-11-01T14:56:24.878Z,92.19
2017-11-01T14:58:52.384Z,91.63
2017-11-01T15:01:19.927Z,92.07
2017-11-01T15:03:47.418Z,91.73
2017-11-01T15:06:14.968Z,91.75
2017-11-01T15:08:42.499Z,91.83
2017-11-01T15:11:10.009Z,91.79
2017-11-01T15:13:37.504Z,91.80
2017-11-01T15:16:05.023Z,92.15
2017-11-01T15:18:32.515Z,92.14
2017-11-01T15:21:00.038Z,92.19
2017-11-01T15:23:27.591Z,92.51
2017-11-01T15:25:55.113Z,92.48
2017-11-01T15:28:22.606Z,92.39
2017-11-01T15:30:50.159Z,92.59
2017-11-01T15:33:17.700Z,92.65
2017-11-01T15:35:45.193Z,92.61
2017-11-01T15:38:12.684Z,92.73
2017-11-01T15:40:40.216Z,92.83
2017-11-01T15:43:07.716Z,92.84
2017-11-01T15:45:35.306Z,92.89
2017-11-01T15:48:02.834Z,92.96
2017-11-01T15:50:30.391Z,92.94
2017-11-01T15:52:57.884Z,93.06
2017-11-01T15:55:25.452Z,92.83
2017-11-01T15:57:53.930Z,92.63
2017-11-01T16:00:21.481Z,92.81
2017-11-01T16:02:49.048Z,92.63
2017-11-01T16:05:16.597Z,92.78
2017-11-01T16:07:44.088Z,92.88
2017-11-01T16:10:11.615Z,92.83
2017-11-01T16:12:39.116Z,92.74
2017-11-01T16:15:06.636Z,92.64
2017-11-01T16:17:34.200Z,92.38
2017-11-01T16:20:01.692Z,92.38
2017-11-01T16:22:29.215Z,92.50
2017-11-01T16:24:56.727Z,92.46
2017-11-01T16:27:24.277Z,92.50
2017-11-01T16:29:51.799Z,92.35
2017-11-01T16:32:19.350Z,92.29
2017-11-01T16:34:46.874Z,92.07
2017-11-01T16:37:14.392Z,91.93
2017-11-01T16:39:41.916Z,91.88
2017-11-01T16:42:09.502Z,91.98
2017-11-01T16:44:36.991Z,92.11
2017-11-01T16:47:04.528Z,91.85
2017-11-01T16:49:32.050Z,92.08
2017-11-01T16:51:59.618Z,92.34
2017-11-01T16:54:27.152Z,92.21
2017-11-01T16:56:54.639Z,92.31
2017-11-01T16:59:22.137Z,92.19
2017-11-01T17:01:49.680Z,92.03
2017-11-01T17:04:17.178Z,91.99
2017-11-01T17:06:44.684Z,91.67
2017-11-01T17:09:12.227Z,91.67
2017-11-01T17:11:39.720Z,91.63
2017-11-01T17:14:07.238Z,91.72
2017-11-01T17:16:34.769Z,91.67
2017-11-01T17:19:02.380Z,91.58
2017-11-01T17:21:29.873Z,91.57
2017-11-01T17:23:57.402Z,91.68
2017-11-01T17:26:24.887Z,91.73
2017-11-01T17:28:52.388Z,91.84
2017-11-01T17:31:19.909Z,91.42
2017-11-01T17:33:47.510Z,91.73
2017-11-01T17:36:15.001Z,91.58
2017-11-01T17:38:42.632Z,91.96
2017-11-01T17:41:10.126Z,91.53
2017-11-01T17:43:37.628Z,91.95
2017-11-01T17:46:05.145Z,91.55
2017-11-01T17:48:32.645Z,91.74
2017-11-01T17:51:00.164Z,91.75
2017-11-01T17:53:27.673Z,91.42
2017-11-01T17:55:55.186Z,91.26
2017-11-01T17:58:22.724Z,91.44
2017-11-01T18:00:50.281Z,91.53
2017-11-01T18:03:17.771Z,91.33
2017-11-01T18:05:45.333Z,91.44
2017-11-01T18:08:12.825Z,91.32
2017-11-01T18:10:40.316Z,91.23
2017-11-01T18:13:07.848Z,91.18
2017-11-01T18:15:35.338Z,91.25
2017-11-01T18:18:02.879Z,91.27
2017-11-01T18:20:30.393Z,90.93
2017-11-01T18:22:57.893Z,90.97
2017-11-01T18:25:25.424Z,90.97
2017-11-01T18:27:52.999Z,90.87
2017-11-01T18:30:20.500Z,90.74
2017-11-01T18:32:48.009Z,90.57
2017-11-01T18:35:15.572Z,90.70
2017-11-01T18:37:43.072Z,91.01
2017-11-01T18:40:10.570Z,91.07
2017-11-01T18:42:38.128Z,90.96
2017-11-01T18:45:05.706Z,91.23
2017-11-01T18:47:33.206Z,91.12
2017-11-01T18:50:00.731Z,91.23
2017-11-01T18:52:28.221Z,91.49
2017-11-01T18:54:55.777Z,91.32
2017-11-01T18:57:23.271Z,91.58
2017-11-01T18:59:50.884Z,91.38
2017-11-01T19:02:18.436Z,91.55
2017-11-01T19:04:45.946Z,91.49
2017-11-01T19:07:13.475Z,91.69
2017-11-01T19:09:40.968Z,91.59
2017-11-01T19:12:08.503Z,91.53
2017-11-01T19:14:36.019Z,91.73
2017-11-01T19:17:03.509Z,91.66
2017-11-01T19:19:31.047Z,91.59
2017-11-01T19:21:58.591Z,91.93
2017-11-01T19:24:26.145Z,91.74
2017-11-01T19:26:53.718Z,92.00
2017-11-01T19:29:21.246Z,92.01
2017-11-01T19:31:48.733Z,91.94
2017-11-01T19:34:16.269Z,92.11
2017-11-01T19:36:43.758Z,92.29
2017-11-01T19:39:11.272Z,92.26
2017-11-01T19:41:38.831Z,92.40
2017-11-01T19:44:06.334Z,92.61
2017-11-01T19:46:33.881Z,92.87
2017-11-01T19:49:01.404Z,93.14
2017-11-01T19:51:28.896Z,93.29
2017-11-01T19:53:56.554Z,93.65
2017-11-01T19:56:24.056Z,93.82
2017-11-01T19:58:51.556Z,93.90
2017-11-01T20:01:19.086Z,93.95
2017-11-01T20:03:46.588Z,93.91
2017-11-01T20:06:14.092Z,93.89
2017-11-01T20:08:41.625Z,93.92
2017-11-01T20:11:09.123Z,93.86
2017-11-01T20:13:36.616Z,93.67
2017-11-01T20:16:05.140Z,93.72
2017-11-01T20:18:32.664Z,93.54
2017-11-01T20:21:00.215Z,93.57
2017-11-01T20:23:27.739Z,93.82
2017-11-01T20:25:55.356Z,94.33
2017-11-01T20:28:22.883Z,94.14
2017-11-01T20:30:50.374Z,94.16
2017-11-01T20:33:17.875Z,94.19
2017-11-01T20:35:45.466Z,93.85
2017-11-01T20:38:12.960Z,93.99
2017-11-01T20:40:40.493Z,94.05
2017-11-01T20:43:08.045Z,94.09
2017-11-01T20:45:35.543Z,93.92
2017-11-01T20:48:03.031Z,94.03
2017-11-01T20:50:30.567Z,94.01
2017-11-01T20:52:58.056Z,94.18
2017-11-01T20:55:25.635Z,94.07
2017-11-01T20:57:53.156Z,93.99
2017-11-01T21:00:20.653Z,94.14
2017-11-01T21:02:48.218Z,94.29
2017-11-01T21:05:15.713Z,94.17
2017-11-01T21:07:43.205Z,94.31
2017-11-01T21:10:10.740Z,94.24
2017-11-01T21:12:38.232Z,94.17
2017-11-01T21:15:05.735Z,94.27
2017-11-01T21:17:33.267Z,94.37
2017-11-01T21:20:00.800Z,94.61
2017-11-01T21:22:28.293Z,94.61
2017-11-01T21:24:55.792Z,94.83
2017-11-01T21:27:23.394Z,94.78
2017-11-01T21:29:50.947Z,94.88
2017-11-01T21:32:18.441Z,94.75
2017-11-01T21:34:45.992Z,94.75
2017-11-01T21:37:13.493Z,94.70
2017-11-01T21:39:41.146Z,94.69
2017-11-01T21:42:08.675Z,94.90
2017-11-01T21:44:36.172Z,94.88
2017-11-01T21:47:03.677Z,94.81
2017-11-01T21:49:31.233Z,94.82
2017-11-01T21:51:58.789Z,94.78
2017-11-01T21:54:26.289Z,94.76
2017-11-01T21:56:53.810Z,94.72
2017-11-01T21:59:21.299Z,94.60
2017-11-01T22:01:48.805Z,94.57
2017-11-01T22:04:16.345Z,94.25
2017-11-01T22:06:43.844Z,94.17
2017-11-01T22:09:11.358Z,94.07
2017-11-01T22:11:38.953Z,93.85
2017-11-01T22:14:06.513Z,94.03
2017-11-01T22:16:34.005Z,93.70
2017-11-01T22:19:01.630Z,93.64
2017-11-01T22:21:29.127Z,93.83
2017-11-01T22:23:56.619Z,93.93
2017-11-01T22:26:24.146Z,93.64
2017-11-01T22:28:51.653Z,93.62
2017-11-01T22:31:19.192Z,93.50
2017-11-01T22:33:46.692Z,93.74
2017-11-01T22:36:14.185Z,93.51
2017-11-01T22:38:41.756Z,93.30
2017-11-01T22:41:09.257Z,93.35
2017-11-01T22:43:36.812Z,93.55
2017-11-01T22:46:04.339Z,93.44
2017-11-01T22:48:31.831Z,93.57
2017-11-01T22:50:59.328Z,93.47
2017-11-01T22:53:26.885Z,93.44
2017-11-01T22:55:54.378Z,93.42
2017-11-01T22:58:21.877Z,93.43
2017-11-01T23:00:49.425Z,93.25
2017-11-01T23:03:16.917Z,93.34
2017-11-01T23:05:44.420Z,93.29
2017-11-01T23:08:11.955Z,93.46
2017-11-01T23:10:39.456Z,93.33
2017-11-01T23:13:06.949Z,93.20
2017-11-01T23:15:34.581Z,93.22
2017-11-01T23:18:02.077Z,92.96
2017-11-01T23:20:29.574Z,93.28
2017-11-01T23:22:57.144Z,93.32
2017-11-01T23:25:24.649Z,93.34
2017-11-01T23:27:52.168Z,93.32
2017-11-01T23:30:19.696Z,93.38
2017-11-01T23:32:47.265Z,93.61
2017-11-01T23:35:14.809Z,93.33
2017-11-01T23:37:42.405Z,93.48
2017-11-01T23:40:09.896Z,93.30
2017-11-01T23:42:37.531Z,93.38
2017-11-01T23:45:05.080Z,93.29
2017-11-01T23:47:32.576Z,93.21
2017-11-01T23:50:00.116Z,92.63
2017-11-01T23:52:27.614Z,92.68
2017-11-01T23:54:55.124Z,92.21
2017-11-01T23:57:22.680Z,91.94
2017-11-01T23:59:50.168Z,91.77
